createdAt,value
2023-05-11T00:00:45.758Z,39.7
2023-05-11T00:02:47.221Z,34.8
2023-05-11T00:04:48.609Z,31.5
2023-05-11T00:05:50.975Z,45
2023-05-11T00:22:05.689Z,39.9
2023-05-11T00:36:18.996Z,28.9
2023-05-11T00:38:20.415Z,53.2
2023-05-11T00:40:21.835Z,26.3
2023-05-11T00:42:26.586Z,49.6
2023-05-11T00:44:27.997Z,20.6
2023-05-11T00:46:29.449Z,24
2023-05-11T00:48:30.858Z,48
2023-05-11T00:52:33.667Z,34.9
2023-05-11T00:54:35.100Z,28.1
2023-05-11T00:56:39.822Z,30.8
2023-05-11T00:58:41.261Z,30.3
2023-05-11T01:00:42.706Z,39.4
2023-05-11T01:01:45.050Z,37.3
2023-05-11T01:17:59.796Z,36.5
2023-05-11T01:20:01.163Z,35.6
2023-05-11T01:22:02.617Z,26.8
2023-05-11T01:24:07.290Z,28.1
2023-05-11T01:32:14.617Z,37.3
2023-05-11T01:34:15.967Z,26.5
2023-05-11T01:38:22.111Z,40.8
2023-05-11T01:40:23.513Z,29.5
2023-05-11T01:42:24.947Z,29.5
2023-05-11T01:44:26.356Z,34.1
2023-05-11T01:46:27.784Z,31.3
2023-05-11T01:48:29.168Z,28.6
2023-05-11T01:50:30.628Z,28.4
2023-05-11T01:54:36.806Z,32.9
2023-05-11T01:56:38.187Z,31.5
2023-05-11T01:59:00.976Z,34
2023-05-11T02:01:02.420Z,26.2
2023-05-11T02:03:03.865Z,35.9
2023-05-11T02:07:09.940Z,30.1
2023-05-11T02:13:14.244Z,34.7
2023-05-11T02:15:15.663Z,31.8
2023-05-11T02:17:17.096Z,41.1
2023-05-11T02:21:23.252Z,28.6
2023-05-11T02:23:24.660Z,44.3
2023-05-11T02:25:26.092Z,29.4
2023-05-11T02:27:27.516Z,36.1
2023-05-11T02:29:28.959Z,35.3
2023-05-11T02:31:30.404Z,34
2023-05-11T02:33:35.108Z,28.7
2023-05-11T02:35:36.534Z,28.9
2023-05-11T02:39:39.429Z,35.1
2023-05-11T02:52:53.647Z,29.8
2023-05-11T02:54:55.052Z,24.7
2023-05-11T02:58:57.913Z,23.5
2023-05-11T03:01:02.697Z,23.9
2023-05-11T03:03:04.121Z,28.3
2023-05-11T03:07:06.893Z,24.2
2023-05-11T03:13:11.167Z,26
2023-05-11T03:15:15.894Z,33
2023-05-11T03:17:17.345Z,32.9
2023-05-11T03:19:18.715Z,30.7
2023-05-11T03:23:21.592Z,29.9
2023-05-11T03:25:22.998Z,26.3
2023-05-11T03:29:29.151Z,33.7
2023-05-11T03:31:30.582Z,38.2
2023-05-11T03:33:31.998Z,45.7
2023-05-11T03:35:33.395Z,34.9
2023-05-11T03:37:34.835Z,38.1
2023-05-11T03:43:42.414Z,50.7
2023-05-11T03:45:43.879Z,37.2
2023-05-11T03:48:47.562Z,33.6
2023-05-11T03:50:49.024Z,29.6
2023-05-11T03:52:50.412Z,33
2023-05-11T03:54:51.843Z,36.9
2023-05-11T03:56:56.569Z,60.2
2023-05-11T04:03:00.936Z,29.5
2023-05-11T04:05:02.234Z,35
2023-05-11T04:07:03.703Z,30.3
2023-05-11T04:11:09.792Z,44.9
2023-05-11T04:13:11.261Z,29.1
2023-05-11T04:15:12.649Z,56.9
2023-05-11T04:17:14.092Z,35.8
2023-05-11T04:43:39.236Z,30.3
2023-05-11T04:44:41.555Z,29.7
2023-05-11T04:46:43.046Z,33.8
2023-05-11T04:48:44.401Z,34.5
2023-05-11T04:50:45.830Z,41.4
2023-05-11T04:54:51.994Z,49.7
2023-05-11T04:56:53.396Z,43
2023-05-11T04:58:54.783Z,53.9
2023-05-11T05:00:56.270Z,51.7
2023-05-11T05:02:57.684Z,47.2
2023-05-11T05:04:59.053Z,64.3
2023-05-11T05:07:03.815Z,55.4
2023-05-11T05:09:05.214Z,51.3
2023-05-11T05:13:08.092Z,50.4
2023-05-11T05:15:09.488Z,48.7
2023-05-11T05:19:12.352Z,61.7
2023-05-11T05:23:18.485Z,46.6
2023-05-11T05:25:19.915Z,39
2023-05-11T05:27:21.342Z,44.6
2023-05-11T05:37:31.736Z,53.8
2023-05-11T05:41:56.216Z,37
2023-05-11T05:43:57.702Z,44.8
2023-05-11T05:45:59.099Z,48.8
2023-05-11T05:48:03.781Z,44
2023-05-11T05:50:05.171Z,49.8
2023-05-11T05:52:06.603Z,40.5
2023-05-11T05:54:07.970Z,47.5
2023-05-11T05:58:10.852Z,46.2
2023-05-11T06:02:17.038Z,55.1
2023-05-11T06:04:18.577Z,40.4
2023-05-11T06:08:21.265Z,30.4
2023-05-11T06:10:22.626Z,30
2023-05-11T06:12:24.024Z,41.5
2023-05-11T06:14:25.480Z,24.9
2023-05-11T06:18:31.636Z,30.4
2023-05-11T06:20:33.068Z,27.2
2023-05-11T06:30:43.504Z,21.8
2023-05-11T06:32:44.894Z,23.6
2023-05-11T06:34:46.265Z,25.5
2023-05-11T06:35:48.655Z,22.6
2023-05-11T06:37:50.085Z,22.1
2023-05-11T06:39:51.458Z,20.5
2023-05-11T06:41:54.398Z,19.8
2023-05-11T06:43:57.593Z,17.7
2023-05-11T06:45:59.034Z,19.5
2023-05-11T06:48:00.462Z,23.5
2023-05-11T06:50:01.860Z,23
2023-05-11T06:52:03.213Z,15.9
2023-05-11T06:54:04.638Z,16.9
2023-05-11T06:58:10.778Z,17.3
2023-05-11T07:02:13.589Z,20.7
2023-05-11T07:12:23.990Z,14.4
2023-05-11T07:24:33.916Z,15
2023-05-11T07:30:41.469Z,21
2023-05-11T07:31:43.823Z,12.5
2023-05-11T07:33:45.217Z,19.6
2023-05-11T07:43:55.564Z,14.6
2023-05-11T07:47:58.419Z,18.2
2023-05-11T07:49:59.781Z,17.6
2023-05-11T07:52:01.161Z,21.6
2023-05-11T07:54:05.886Z,15.1
2023-05-11T07:56:07.249Z,19.2
2023-05-11T07:58:08.688Z,17.3
2023-05-11T08:00:11.001Z,17.7
2023-05-11T08:02:13.305Z,10.7
2023-05-11T08:04:12.916Z,17.4
2023-05-11T08:06:14.376Z,18.2
2023-05-11T08:08:19.038Z,21.8
2023-05-11T08:14:23.293Z,15.5
2023-05-11T08:18:26.083Z,19.2
2023-05-11T08:20:27.501Z,17.8
2023-05-11T08:22:32.222Z,17.8
2023-05-11T08:24:33.618Z,16.3
2023-05-11T08:26:35.015Z,17.4
2023-05-11T08:27:37.375Z,23.6
2023-05-11T08:35:46.211Z,18.1
2023-05-11T08:37:47.603Z,23.9
2023-05-11T08:39:49.007Z,21.7
2023-05-11T08:43:51.797Z,12.5
2023-05-11T08:45:53.219Z,10.9
2023-05-11T08:47:54.633Z,15.1
2023-05-11T08:49:59.285Z,13.1
2023-05-11T08:54:02.111Z,12.4
2023-05-11T08:56:03.473Z,11.9
2023-05-11T08:58:04.885Z,15.2
2023-05-11T09:00:06.288Z,13.2
2023-05-11T09:10:16.628Z,13.5
2023-05-11T09:12:17.996Z,13.8
2023-05-11T09:16:35.537Z,11.8
2023-05-11T09:18:25.544Z,13.4
2023-05-11T09:20:26.933Z,14.9
2023-05-11T09:22:30.861Z,14.8
2023-05-11T09:35:01.282Z,16.4
2023-05-11T09:37:02.670Z,13
2023-05-11T09:53:17.246Z,11.6
2023-05-11T09:57:20.035Z,14.2
2023-05-11T09:59:26.646Z,12.3
2023-05-11T10:01:26.204Z,7.9
2023-05-11T10:03:27.671Z,11.9
2023-05-11T10:07:30.395Z,8.2
2023-05-11T10:09:31.764Z,7.3
2023-05-11T10:13:37.900Z,7
2023-05-11T10:18:43.156Z,5.2
2023-05-11T10:20:44.551Z,7.5
2023-05-11T10:24:47.370Z,5.1
2023-05-11T10:26:52.034Z,9.4
2023-05-11T10:30:54.838Z,5.4
2023-05-11T10:32:56.365Z,2.6
2023-05-11T10:34:57.684Z,3.8
2023-05-11T10:36:59.027Z,2.1
2023-05-11T10:43:06.612Z,3
2023-05-11T10:45:08.010Z,2.7
2023-05-11T10:47:09.410Z,2.5
2023-05-11T11:09:31.459Z,5.6
2023-05-11T11:11:32.806Z,2.8
2023-05-11T11:14:36.513Z,5.4
2023-05-11T11:16:38.051Z,3.8
2023-05-11T11:24:46.898Z,2.3
2023-05-11T11:30:50.900Z,2.4
2023-05-11T11:32:52.739Z,1.9
2023-05-11T11:34:54.052Z,2.2
2023-05-11T11:39:00.186Z,1.6
2023-05-11T11:43:02.903Z,2.5
2023-05-11T11:45:04.235Z,4.8
2023-05-11T11:47:05.637Z,3.4
2023-05-11T11:49:07.041Z,2.3
2023-05-11T11:51:11.781Z,3.1
2023-05-11T11:55:14.400Z,7.5
2023-05-11T11:57:15.743Z,4.1
2023-05-11T11:59:17.124Z,2.3
2023-05-11T12:03:19.831Z,1.8
2023-05-11T12:05:24.508Z,3.1
2023-05-11T12:07:25.520Z,1.3
2023-05-11T12:09:26.903Z,0.9
2023-05-11T12:34:50.969Z,1.8
2023-05-11T12:38:53.531Z,2.2
2023-05-11T12:40:54.870Z,4.9
2023-05-11T12:44:57.344Z,5.8
2023-05-11T12:47:01.865Z,2.9
2023-05-11T13:03:15.158Z,2.8
2023-05-11T13:07:32.756Z,2.3
2023-05-11T13:09:35.572Z,1.2
2023-05-11T13:11:36.846Z,0.6
2023-05-11T13:13:41.524Z,2.1
2023-05-11T13:15:42.861Z,2.5
2023-05-11T13:17:44.052Z,0.9
2023-05-11T13:19:45.356Z,1
2023-05-11T13:21:46.682Z,0.7
2023-05-11T13:23:47.981Z,0.5
2023-05-11T13:25:49.298Z,2
2023-05-11T13:27:53.703Z,1.7
2023-05-11T13:29:54.938Z,1.2
2023-05-11T13:31:56.227Z,1.1
2023-05-11T13:33:57.419Z,0.7
2023-05-11T13:35:58.723Z,1.6
2023-05-11T13:37:59.954Z,2.1
2023-05-11T13:40:01.304Z,1
2023-05-11T13:44:07.208Z,3.6
2023-05-11T13:46:08.543Z,1.1
2023-05-11T13:48:09.803Z,0.8
2023-05-11T13:50:11.129Z,0.7
2023-05-11T13:52:12.345Z,1.5
2023-05-11T13:54:13.613Z,1
2023-05-11T13:56:18.279Z,0.9
2023-05-11T13:58:19.542Z,1
2023-05-11T14:00:20.894Z,1
2023-05-11T14:01:23.293Z,1.5
2023-05-11T14:07:39.072Z,1.5
2023-05-11T14:23:57.763Z,13.3
2023-05-11T14:27:47.498Z,1.9
2023-05-11T14:29:48.888Z,1.6
2023-05-11T14:31:50.273Z,1.6
2023-05-11T14:33:51.686Z,1.3
2023-05-11T14:35:53.097Z,1.8
2023-05-11T14:39:59.188Z,1.2
2023-05-11T14:42:00.644Z,2.4
2023-05-11T14:44:02.013Z,2.5
2023-05-11T14:46:03.458Z,3.7
2023-05-11T14:50:06.254Z,6.9
2023-05-11T15:03:20.440Z,6.9
2023-05-11T15:05:25.099Z,8.1
2023-05-11T15:09:27.928Z,8.1
2023-05-11T15:13:30.747Z,10.8
2023-05-11T15:19:38.325Z,11.6
2023-05-11T15:21:39.734Z,9.9
2023-05-11T15:23:41.281Z,13.5
2023-05-11T15:25:42.614Z,10.4
2023-05-11T15:29:45.438Z,10.4
2023-05-11T15:43:58.675Z,16.4
2023-05-11T15:53:10.034Z,12.7
2023-05-11T15:55:11.460Z,16.9
2023-05-11T15:57:12.868Z,14.6
2023-05-11T15:59:14.261Z,17.3
2023-05-11T16:03:20.637Z,10.8
2023-05-11T16:07:23.266Z,13
2023-05-11T16:09:24.643Z,14.1
2023-05-11T16:13:27.484Z,20.4
2023-05-11T16:15:32.187Z,11.4
2023-05-11T16:17:33.656Z,16.4
2023-05-11T16:19:35.022Z,14.4
2023-05-11T16:23:37.867Z,15.9
2023-05-11T16:25:39.263Z,22.6
2023-05-11T16:27:40.701Z,14.3
2023-05-11T16:29:45.425Z,15.9
2023-05-11T16:31:46.881Z,14.1
2023-05-11T16:33:48.235Z,11.7
2023-05-11T16:39:52.452Z,9.1
2023-05-11T16:41:53.893Z,15
2023-05-11T16:50:24.269Z,10.4
2023-05-11T16:52:25.681Z,8
2023-05-11T16:56:31.790Z,7.8
2023-05-11T16:58:33.200Z,9.3
2023-05-11T17:00:34.664Z,7
2023-05-11T17:02:36.113Z,8.6
2023-05-11T17:06:38.818Z,7.6
2023-05-11T17:08:40.223Z,10.3
2023-05-11T17:10:44.966Z,10.2
2023-05-11T17:12:46.328Z,8
2023-05-11T17:16:49.337Z,10.4
2023-05-11T17:18:50.585Z,8.4
2023-05-11T17:22:53.388Z,7.2
2023-05-11T17:24:58.108Z,8.7
2023-05-11T17:26:59.523Z,7.7
2023-05-11T17:29:00.938Z,12.7
2023-05-11T17:31:02.484Z,8.2
2023-05-11T17:33:04.054Z,10.5
2023-05-11T17:35:05.172Z,9.8
2023-05-11T17:37:06.922Z,9.7
2023-05-11T17:43:14.145Z,8.2
2023-05-11T17:44:16.511Z,10.3
2023-05-11T17:46:17.986Z,16.1
2023-05-11T17:52:25.448Z,8.4
2023-05-11T17:54:26.917Z,10.3
2023-05-11T17:58:29.713Z,7.8
2023-05-11T18:00:31.103Z,10
2023-05-11T18:02:32.593Z,7.4
2023-05-11T18:04:33.964Z,9.8
2023-05-11T18:06:38.628Z,16.2
2023-05-11T18:20:51.864Z,11.5
2023-05-11T18:22:53.245Z,13
2023-05-11T18:24:54.676Z,15
2023-05-11T18:26:56.095Z,10.1
2023-05-11T18:28:57.477Z,16.2
2023-05-11T18:30:58.912Z,10.8
2023-05-11T18:33:00.324Z,8.8
2023-05-11T18:35:05.014Z,12
2023-05-11T18:37:06.430Z,11.8
2023-05-11T18:39:07.873Z,8.5
2023-05-11T18:40:10.201Z,14.3
2023-05-11T18:42:11.594Z,14.5
2023-05-11T18:52:21.972Z,18.5
2023-05-11T19:08:38.113Z,12.3
2023-05-11T19:20:49.892Z,12
2023-05-11T19:24:52.739Z,8.9
2023-05-11T19:27:05.841Z,3
2023-05-11T19:28:55.551Z,4.2
2023-05-11T19:31:00.228Z,4
2023-05-11T19:35:03.066Z,3.5
2023-05-11T19:36:05.441Z,5.5
2023-05-11T19:38:06.851Z,5.2
2023-05-11T19:40:43.080Z,6.2
2023-05-11T19:50:20.533Z,6.3
2023-05-11T19:52:20.064Z,2.3
2023-05-11T19:58:27.608Z,6.9
2023-05-11T20:02:30.521Z,9.3
2023-05-11T20:10:36.089Z,6.3
2023-05-11T20:12:40.803Z,7.1
2023-05-11T20:14:42.265Z,5.5
2023-05-11T20:16:43.665Z,3.7
2023-05-11T20:18:45.106Z,5.3
2023-05-11T20:22:47.859Z,7.6
2023-05-11T20:24:49.297Z,9.1
2023-05-11T20:28:55.442Z,7.3
2023-05-11T20:30:56.865Z,5
2023-05-11T20:37:22.768Z,4.6
2023-05-11T20:43:30.323Z,7.4
2023-05-11T20:45:31.820Z,3
2023-05-11T20:57:43.584Z,4.7
2023-05-11T21:05:49.280Z,0.7
2023-05-11T21:09:55.387Z,4.2
2023-05-11T21:13:58.261Z,6.9
2023-05-11T21:15:59.672Z,4.3
2023-05-11T21:18:01.177Z,1.2
2023-05-11T21:20:02.510Z,1.9
2023-05-11T21:22:07.247Z,6.2
2023-05-11T21:24:08.652Z,4.9
2023-05-11T21:26:10.098Z,4.8
2023-05-11T21:27:12.467Z,5.2
2023-05-11T21:29:13.873Z,8.4
2023-05-11T21:31:15.320Z,6.7
2023-05-11T21:35:21.455Z,2.4
2023-05-11T21:37:22.873Z,6.4
2023-05-11T21:39:24.324Z,4.7
2023-05-11T21:43:27.146Z,9.4
2023-05-11T21:45:28.623Z,6.2
2023-05-11T21:47:30.065Z,7
2023-05-11T21:49:34.728Z,10.5
2023-05-11T22:07:53.973Z,8.5
2023-05-11T22:09:52.612Z,10.2
2023-05-11T22:18:01.587Z,6.1
2023-05-11T22:20:03.011Z,1.6
2023-05-11T22:22:04.410Z,3.4
2023-05-11T22:23:06.804Z,2.8
2023-05-11T22:25:08.208Z,2.8
2023-05-11T22:27:09.622Z,2.8
2023-05-11T22:29:11.048Z,6.6
2023-05-11T22:31:15.831Z,5.3
2023-05-11T22:33:17.197Z,5.1
2023-05-11T22:35:18.688Z,4.7
2023-05-11T22:37:20.050Z,3.8
2023-05-11T22:39:21.413Z,12.9
2023-05-11T22:41:22.884Z,18.1
2023-05-11T22:43:24.288Z,1.9
2023-05-11T22:45:29.006Z,6.8
2023-05-11T22:47:30.456Z,5.8
2023-05-11T22:49:31.868Z,4.3
2023-05-11T22:51:33.286Z,3.7
2023-05-11T23:05:46.529Z,5.4
2023-05-11T23:09:49.408Z,8.6
2023-05-11T23:15:56.990Z,9.3
2023-05-11T23:17:58.451Z,11.9
2023-05-11T23:19:01.154Z,5
2023-05-11T23:21:02.174Z,6.5
2023-05-11T23:23:03.605Z,1.9
2023-05-11T23:25:05.006Z,2
2023-05-11T23:27:09.729Z,12.5
2023-05-11T23:29:11.221Z,12.2
2023-05-11T23:31:12.612Z,10.6
2023-05-11T23:33:13.982Z,11.4
2023-05-11T23:35:16.087Z,5.9
2023-05-11T23:37:17.483Z,7.2
2023-05-11T23:41:23.634Z,5.1
2023-05-11T23:43:25.048Z,7.5
2023-05-11T23:45:26.467Z,8.2
2023-05-11T23:47:27.959Z,11.6
2023-05-11T23:49:29.329Z,11.7
2023-05-11T23:51:30.701Z,12.1
2023-05-11T23:53:32.137Z,6.9
